Index of /20260425/WXO-DD/model_rdps/10km/06/000
Name Last modified Size Description
Parent Directory -
20260425T06Z_MSC_RDPS_AbsoluteVorticity_IsbL-0250_RLatLon0.09_PT000H.grib2 2026-04-25 08:42 662K
20260425T06Z_MSC_RDPS_AbsoluteVorticity_IsbL-0500_RLatLon0.09_PT000H.grib2 2026-04-25 08:42 604K
20260425T06Z_MSC_RDPS_AbsoluteVorticity_IsbL-0700_RLatLon0.09_PT000H.grib2 2026-04-25 08:42 660K
20260425T06Z_MSC_RDPS_AbsoluteVorticity_IsbL-0850_RLatLon0.09_PT000H.grib2 2026-04-25 08:42 666K
20260425T06Z_MSC_RDPS_AirTemp_AGL-120m_RLatLon0.09_PT000H.grib2 2026-04-25 08:42 367K
20260425T06Z_MSC_RDPS_AirTemp_AGL-2m_RLatLon0.09_PT000H.grib2 2026-04-25 08:42 519K
20260425T06Z_MSC_RDPS_AirTemp_AGL-40m_RLatLon0.09_PT000H.grib2 2026-04-25 08:42 387K
20260425T06Z_MSC_RDPS_AirTemp_AGL-80m_RLatLon0.09_PT000H.grib2 2026-04-25 08:42 375K
20260425T06Z_MSC_RDPS_AirTemp_IsbL-0001_RLatLon0.09_PT000H.grib2 2026-04-25 08:42 283K
20260425T06Z_MSC_RDPS_AirTemp_IsbL-0005_RLatLon0.09_PT000H.grib2 2026-04-25 08:42 309K
20260425T06Z_MSC_RDPS_AirTemp_IsbL-0010_RLatLon0.09_PT000H.grib2 2026-04-25 08:42 273K
20260425T06Z_MSC_RDPS_AirTemp_IsbL-0020_RLatLon0.09_PT000H.grib2 2026-04-25 08:42 287K
20260425T06Z_MSC_RDPS_AirTemp_IsbL-0030_RLatLon0.09_PT000H.grib2 2026-04-25 08:42 304K
20260425T06Z_MSC_RDPS_AirTemp_IsbL-0050_RLatLon0.09_PT000H.grib2 2026-04-25 08:42 286K
20260425T06Z_MSC_RDPS_AirTemp_IsbL-0100_RLatLon0.09_PT000H.grib2 2026-04-25 08:42 372K
20260425T06Z_MSC_RDPS_AirTemp_IsbL-0150_RLatLon0.09_PT000H.grib2 2026-04-25 08:42 366K
20260425T06Z_MSC_RDPS_AirTemp_IsbL-0175_RLatLon0.09_PT000H.grib2 2026-04-25 08:42 362K
20260425T06Z_MSC_RDPS_AirTemp_IsbL-0200_RLatLon0.09_PT000H.grib2 2026-04-25 08:42 362K
20260425T06Z_MSC_RDPS_AirTemp_IsbL-0225_RLatLon0.09_PT000H.grib2 2026-04-25 08:42 361K
20260425T06Z_MSC_RDPS_AirTemp_IsbL-0250_RLatLon0.09_PT000H.grib2 2026-04-25 08:42 366K
20260425T06Z_MSC_RDPS_AirTemp_IsbL-0275_RLatLon0.09_PT000H.grib2 2026-04-25 08:42 353K
20260425T06Z_MSC_RDPS_AirTemp_IsbL-0300_RLatLon0.09_PT000H.grib2 2026-04-25 08:42 360K
20260425T06Z_MSC_RDPS_AirTemp_IsbL-0350_RLatLon0.09_PT000H.grib2 2026-04-25 08:42 383K
20260425T06Z_MSC_RDPS_AirTemp_IsbL-0400_RLatLon0.09_PT000H.grib2 2026-04-25 08:42 384K
20260425T06Z_MSC_RDPS_AirTemp_IsbL-0450_RLatLon0.09_PT000H.grib2 2026-04-25 08:42 358K
20260425T06Z_MSC_RDPS_AirTemp_IsbL-0500_RLatLon0.09_PT000H.grib2 2026-04-25 08:42 368K
20260425T06Z_MSC_RDPS_AirTemp_IsbL-0550_RLatLon0.09_PT000H.grib2 2026-04-25 08:42 385K
20260425T06Z_MSC_RDPS_AirTemp_IsbL-0600_RLatLon0.09_PT000H.grib2 2026-04-25 08:42 398K
20260425T06Z_MSC_RDPS_AirTemp_IsbL-0650_RLatLon0.09_PT000H.grib2 2026-04-25 08:42 406K
20260425T06Z_MSC_RDPS_AirTemp_IsbL-0700_RLatLon0.09_PT000H.grib2 2026-04-25 08:42 425K
20260425T06Z_MSC_RDPS_AirTemp_IsbL-0750_RLatLon0.09_PT000H.grib2 2026-04-25 08:42 354K
20260425T06Z_MSC_RDPS_AirTemp_IsbL-0800_RLatLon0.09_PT000H.grib2 2026-04-25 08:42 388K
20260425T06Z_MSC_RDPS_AirTemp_IsbL-0850_RLatLon0.09_PT000H.grib2 2026-04-25 08:42 424K
20260425T06Z_MSC_RDPS_AirTemp_IsbL-0875_RLatLon0.09_PT000H.grib2 2026-04-25 08:42 437K
20260425T06Z_MSC_RDPS_AirTemp_IsbL-0900_RLatLon0.09_PT000H.grib2 2026-04-25 08:42 440K
20260425T06Z_MSC_RDPS_AirTemp_IsbL-0925_RLatLon0.09_PT000H.grib2 2026-04-25 08:42 453K
20260425T06Z_MSC_RDPS_AirTemp_IsbL-0950_RLatLon0.09_PT000H.grib2 2026-04-25 08:42 458K
20260425T06Z_MSC_RDPS_AirTemp_IsbL-0970_RLatLon0.09_PT000H.grib2 2026-04-25 08:42 443K
20260425T06Z_MSC_RDPS_AirTemp_IsbL-0985_RLatLon0.09_PT000H.grib2 2026-04-25 08:42 434K
20260425T06Z_MSC_RDPS_AirTemp_IsbL-1000_RLatLon0.09_PT000H.grib2 2026-04-25 08:42 417K
20260425T06Z_MSC_RDPS_AirTemp_IsbL-1015_RLatLon0.09_PT000H.grib2 2026-04-25 08:42 433K
20260425T06Z_MSC_RDPS_Albedo_Sfc_RLatLon0.09_PT000H.grib2 2026-04-25 08:42 163K
20260425T06Z_MSC_RDPS_CAPE_Sfc_RLatLon0.09_PT000H.grib2 2026-04-25 08:42 1.6M
20260425T06Z_MSC_RDPS_CIN_Sfc_RLatLon0.09_PT000H.grib2 2026-04-25 08:42 1.2M
20260425T06Z_MSC_RDPS_CloudWater_EAtm_RLatLon0.09_PT000H.grib2 2026-04-25 08:42 199K
20260425T06Z_MSC_RDPS_DewPointDepression_AGL-2m_RLatLon0.09_PT000H.grib2 2026-04-25 08:42 314K
20260425T06Z_MSC_RDPS_DewPointDepression_IsbL-0001_RLatLon0.09_PT000H.grib2 2026-04-25 08:42 193
20260425T06Z_MSC_RDPS_DewPointDepression_IsbL-0005_RLatLon0.09_PT000H.grib2 2026-04-25 08:42 193
20260425T06Z_MSC_RDPS_DewPointDepression_IsbL-0010_RLatLon0.09_PT000H.grib2 2026-04-25 08:42 193
20260425T06Z_MSC_RDPS_DewPointDepression_IsbL-0020_RLatLon0.09_PT000H.grib2 2026-04-25 08:42 193
20260425T06Z_MSC_RDPS_DewPointDepression_IsbL-0030_RLatLon0.09_PT000H.grib2 2026-04-25 08:42 193
20260425T06Z_MSC_RDPS_DewPointDepression_IsbL-0050_RLatLon0.09_PT000H.grib2 2026-04-25 08:42 85K
20260425T06Z_MSC_RDPS_DewPointDepression_IsbL-0100_RLatLon0.09_PT000H.grib2 2026-04-25 08:42 119K
20260425T06Z_MSC_RDPS_DewPointDepression_IsbL-0150_RLatLon0.09_PT000H.grib2 2026-04-25 08:42 138K
20260425T06Z_MSC_RDPS_DewPointDepression_IsbL-0175_RLatLon0.09_PT000H.grib2 2026-04-25 08:42 168K
20260425T06Z_MSC_RDPS_DewPointDepression_IsbL-0200_RLatLon0.09_PT000H.grib2 2026-04-25 08:42 200K
20260425T06Z_MSC_RDPS_DewPointDepression_IsbL-0225_RLatLon0.09_PT000H.grib2 2026-04-25 08:42 231K
20260425T06Z_MSC_RDPS_DewPointDepression_IsbL-0250_RLatLon0.09_PT000H.grib2 2026-04-25 08:42 261K
20260425T06Z_MSC_RDPS_DewPointDepression_IsbL-0275_RLatLon0.09_PT000H.grib2 2026-04-25 08:42 272K
20260425T06Z_MSC_RDPS_DewPointDepression_IsbL-0300_RLatLon0.09_PT000H.grib2 2026-04-25 08:42 292K
20260425T06Z_MSC_RDPS_DewPointDepression_IsbL-0350_RLatLon0.09_PT000H.grib2 2026-04-25 08:42 304K
20260425T06Z_MSC_RDPS_DewPointDepression_IsbL-0400_RLatLon0.09_PT000H.grib2 2026-04-25 08:42 314K
20260425T06Z_MSC_RDPS_DewPointDepression_IsbL-0450_RLatLon0.09_PT000H.grib2 2026-04-25 08:42 320K
20260425T06Z_MSC_RDPS_DewPointDepression_IsbL-0500_RLatLon0.09_PT000H.grib2 2026-04-25 08:42 325K
20260425T06Z_MSC_RDPS_DewPointDepression_IsbL-0550_RLatLon0.09_PT000H.grib2 2026-04-25 08:42 338K
20260425T06Z_MSC_RDPS_DewPointDepression_IsbL-0600_RLatLon0.09_PT000H.grib2 2026-04-25 08:42 343K
20260425T06Z_MSC_RDPS_DewPointDepression_IsbL-0650_RLatLon0.09_PT000H.grib2 2026-04-25 08:42 344K
20260425T06Z_MSC_RDPS_DewPointDepression_IsbL-0700_RLatLon0.09_PT000H.grib2 2026-04-25 08:42 351K
20260425T06Z_MSC_RDPS_DewPointDepression_IsbL-0750_RLatLon0.09_PT000H.grib2 2026-04-25 08:42 363K
20260425T06Z_MSC_RDPS_DewPointDepression_IsbL-0800_RLatLon0.09_PT000H.grib2 2026-04-25 08:42 378K
20260425T06Z_MSC_RDPS_DewPointDepression_IsbL-0850_RLatLon0.09_PT000H.grib2 2026-04-25 08:42 388K
20260425T06Z_MSC_RDPS_DewPointDepression_IsbL-0875_RLatLon0.09_PT000H.grib2 2026-04-25 08:42 387K
20260425T06Z_MSC_RDPS_DewPointDepression_IsbL-0900_RLatLon0.09_PT000H.grib2 2026-04-25 08:42 382K
20260425T06Z_MSC_RDPS_DewPointDepression_IsbL-0925_RLatLon0.09_PT000H.grib2 2026-04-25 08:42 372K
20260425T06Z_MSC_RDPS_DewPointDepression_IsbL-0950_RLatLon0.09_PT000H.grib2 2026-04-25 08:42 364K
20260425T06Z_MSC_RDPS_DewPointDepression_IsbL-0970_RLatLon0.09_PT000H.grib2 2026-04-25 08:42 359K
20260425T06Z_MSC_RDPS_DewPointDepression_IsbL-0985_RLatLon0.09_PT000H.grib2 2026-04-25 08:42 351K
20260425T06Z_MSC_RDPS_DewPointDepression_IsbL-1000_RLatLon0.09_PT000H.grib2 2026-04-25 08:42 343K
20260425T06Z_MSC_RDPS_DewPointDepression_IsbL-1015_RLatLon0.09_PT000H.grib2 2026-04-25 08:42 332K
20260425T06Z_MSC_RDPS_DewPoint_AGL-2m_RLatLon0.09_PT000H.grib2 2026-04-25 08:42 250K
20260425T06Z_MSC_RDPS_DownwardLongwaveRadiationFlux-Accum_Sfc_RLatLon0.09_PT000H.grib2 2026-04-25 08:42 217
20260425T06Z_MSC_RDPS_DownwardShortwaveRadiationFlux-Accum_NTAtm_RLatLon0.09_PT000H.grib2 2026-04-25 08:42 217
20260425T06Z_MSC_RDPS_DownwardShortwaveRadiationFlux-Accum_Sfc_RLatLon0.09_PT000H.grib2 2026-04-25 08:42 217
20260425T06Z_MSC_RDPS_GeopotentialHeight_IsbL-0001_RLatLon0.09_PT000H.grib2 2026-04-25 08:42 290K
20260425T06Z_MSC_RDPS_GeopotentialHeight_IsbL-0005_RLatLon0.09_PT000H.grib2 2026-04-25 08:42 337K
20260425T06Z_MSC_RDPS_GeopotentialHeight_IsbL-0010_RLatLon0.09_PT000H.grib2 2026-04-25 08:42 368K
20260425T06Z_MSC_RDPS_GeopotentialHeight_IsbL-0020_RLatLon0.09_PT000H.grib2 2026-04-25 08:42 338K
20260425T06Z_MSC_RDPS_GeopotentialHeight_IsbL-0030_RLatLon0.09_PT000H.grib2 2026-04-25 08:42 445K
20260425T06Z_MSC_RDPS_GeopotentialHeight_IsbL-0050_RLatLon0.09_PT000H.grib2 2026-04-25 08:42 340K
20260425T06Z_MSC_RDPS_GeopotentialHeight_IsbL-0100_RLatLon0.09_PT000H.grib2 2026-04-25 08:42 295K
20260425T06Z_MSC_RDPS_GeopotentialHeight_IsbL-0150_RLatLon0.09_PT000H.grib2 2026-04-25 08:42 230K
20260425T06Z_MSC_RDPS_GeopotentialHeight_IsbL-0175_RLatLon0.09_PT000H.grib2 2026-04-25 08:42 232K
20260425T06Z_MSC_RDPS_GeopotentialHeight_IsbL-0200_RLatLon0.09_PT000H.grib2 2026-04-25 08:42 234K
20260425T06Z_MSC_RDPS_GeopotentialHeight_IsbL-0225_RLatLon0.09_PT000H.grib2 2026-04-25 08:42 267K
20260425T06Z_MSC_RDPS_GeopotentialHeight_IsbL-0250_RLatLon0.09_PT000H.grib2 2026-04-25 08:42 268K
20260425T06Z_MSC_RDPS_GeopotentialHeight_IsbL-0275_RLatLon0.09_PT000H.grib2 2026-04-25 08:42 268K
20260425T06Z_MSC_RDPS_GeopotentialHeight_IsbL-0300_RLatLon0.09_PT000H.grib2 2026-04-25 08:42 236K
20260425T06Z_MSC_RDPS_GeopotentialHeight_IsbL-0350_RLatLon0.09_PT000H.grib2 2026-04-25 08:42 234K
20260425T06Z_MSC_RDPS_GeopotentialHeight_IsbL-0400_RLatLon0.09_PT000H.grib2 2026-04-25 08:42 231K
20260425T06Z_MSC_RDPS_GeopotentialHeight_IsbL-0450_RLatLon0.09_PT000H.grib2 2026-04-25 08:42 302K
20260425T06Z_MSC_RDPS_GeopotentialHeight_IsbL-0500_RLatLon0.09_PT000H.grib2 2026-04-25 08:42 298K
20260425T06Z_MSC_RDPS_GeopotentialHeight_IsbL-0550_RLatLon0.09_PT000H.grib2 2026-04-25 08:42 296K
20260425T06Z_MSC_RDPS_GeopotentialHeight_IsbL-0600_RLatLon0.09_PT000H.grib2 2026-04-25 08:42 293K
20260425T06Z_MSC_RDPS_GeopotentialHeight_IsbL-0650_RLatLon0.09_PT000H.grib2 2026-04-25 08:42 262K
20260425T06Z_MSC_RDPS_GeopotentialHeight_IsbL-0700_RLatLon0.09_PT000H.grib2 2026-04-25 08:42 260K
20260425T06Z_MSC_RDPS_GeopotentialHeight_IsbL-0750_RLatLon0.09_PT000H.grib2 2026-04-25 08:42 343K
20260425T06Z_MSC_RDPS_GeopotentialHeight_IsbL-0800_RLatLon0.09_PT000H.grib2 2026-04-25 08:42 345K
20260425T06Z_MSC_RDPS_GeopotentialHeight_IsbL-0850_RLatLon0.09_PT000H.grib2 2026-04-25 08:42 347K
20260425T06Z_MSC_RDPS_GeopotentialHeight_IsbL-0875_RLatLon0.09_PT000H.grib2 2026-04-25 08:42 346K
20260425T06Z_MSC_RDPS_GeopotentialHeight_IsbL-0900_RLatLon0.09_PT000H.grib2 2026-04-25 08:42 349K
20260425T06Z_MSC_RDPS_GeopotentialHeight_IsbL-0925_RLatLon0.09_PT000H.grib2 2026-04-25 08:42 352K
20260425T06Z_MSC_RDPS_GeopotentialHeight_IsbL-0950_RLatLon0.09_PT000H.grib2 2026-04-25 08:42 353K
20260425T06Z_MSC_RDPS_GeopotentialHeight_IsbL-0970_RLatLon0.09_PT000H.grib2 2026-04-25 08:42 358K
20260425T06Z_MSC_RDPS_GeopotentialHeight_IsbL-0985_RLatLon0.09_PT000H.grib2 2026-04-25 08:42 364K
20260425T06Z_MSC_RDPS_GeopotentialHeight_IsbL-1000_RLatLon0.09_PT000H.grib2 2026-04-25 08:42 371K
20260425T06Z_MSC_RDPS_GeopotentialHeight_IsbL-1015_RLatLon0.09_PT000H.grib2 2026-04-25 08:42 291K
20260425T06Z_MSC_RDPS_GeopotentialHeight_Sfc_RLatLon0.09_PT000H.grib2 2026-04-25 08:42 295K
20260425T06Z_MSC_RDPS_Humidex_Sfc_RLatLon0.09_PT000H.grib2 2026-04-25 08:42 2.3M
20260425T06Z_MSC_RDPS_KIndex_Sfc_RLatLon0.09_PT000H.grib2 2026-04-25 08:42 2.2M
20260425T06Z_MSC_RDPS_LandWaterProportion_Sfc_RLatLon0.09_PT000H.grib2 2026-04-25 08:42 156K
20260425T06Z_MSC_RDPS_LatentHeatNetFlux_Sfc_RLatLon0.09_PT000H.grib2 2026-04-25 08:42 314K
20260425T06Z_MSC_RDPS_LiftedIndex-MU-VT_IsbL-0500_RLatLon0.09_PT000H.grib2 2026-04-25 08:42 2.3M
20260425T06Z_MSC_RDPS_NetLongwaveRadiationFlux-Accum_Sfc_RLatLon0.09_PT000H.grib2 2026-04-25 08:42 217
20260425T06Z_MSC_RDPS_NetShortwaveRadiationFlux-Accum_Sfc_RLatLon0.09_PT000H.grib2 2026-04-25 08:42 217
20260425T06Z_MSC_RDPS_PlanetaryBoundaryLayerHeight_Sfc_RLatLon0.09_PT000H.grib2 2026-04-25 08:42 1.0M
20260425T06Z_MSC_RDPS_PrecipType-Instant_Sfc_RLatLon0.09_PT000H.grib2 2026-04-25 08:42 193
20260425T06Z_MSC_RDPS_Pressure_MSL_RLatLon0.09_PT000H.grib2 2026-04-25 08:42 312K
20260425T06Z_MSC_RDPS_Pressure_Sfc_RLatLon0.09_PT000H.grib2 2026-04-25 08:42 495K
20260425T06Z_MSC_RDPS_RadiativeTemp_Sfc_RLatLon0.09_PT000H.grib2 2026-04-25 08:42 258K
20260425T06Z_MSC_RDPS_RelativeHumidity_AGL-2m_RLatLon0.09_PT000H.grib2 2026-04-25 08:42 854K
20260425T06Z_MSC_RDPS_RelativeHumidity_IsbL-0010_RLatLon0.09_PT000H.grib2 2026-04-25 08:42 629K
20260425T06Z_MSC_RDPS_RelativeHumidity_IsbL-0020_RLatLon0.09_PT000H.grib2 2026-04-25 08:42 649K
20260425T06Z_MSC_RDPS_RelativeHumidity_IsbL-0030_RLatLon0.09_PT000H.grib2 2026-04-25 08:42 528K
20260425T06Z_MSC_RDPS_RelativeHumidity_IsbL-0050_RLatLon0.09_PT000H.grib2 2026-04-25 08:42 301K
20260425T06Z_MSC_RDPS_RelativeHumidity_IsbL-0100_RLatLon0.09_PT000H.grib2 2026-04-25 08:42 240K
20260425T06Z_MSC_RDPS_RelativeHumidity_IsbL-0150_RLatLon0.09_PT000H.grib2 2026-04-25 08:42 352K
20260425T06Z_MSC_RDPS_RelativeHumidity_IsbL-0175_RLatLon0.09_PT000H.grib2 2026-04-25 08:42 428K
20260425T06Z_MSC_RDPS_RelativeHumidity_IsbL-0200_RLatLon0.09_PT000H.grib2 2026-04-25 08:42 498K
20260425T06Z_MSC_RDPS_RelativeHumidity_IsbL-0225_RLatLon0.09_PT000H.grib2 2026-04-25 08:42 554K
20260425T06Z_MSC_RDPS_RelativeHumidity_IsbL-0250_RLatLon0.09_PT000H.grib2 2026-04-25 08:42 615K
20260425T06Z_MSC_RDPS_RelativeHumidity_IsbL-0275_RLatLon0.09_PT000H.grib2 2026-04-25 08:42 635K
20260425T06Z_MSC_RDPS_RelativeHumidity_IsbL-0300_RLatLon0.09_PT000H.grib2 2026-04-25 08:42 674K
20260425T06Z_MSC_RDPS_RelativeHumidity_IsbL-0350_RLatLon0.09_PT000H.grib2 2026-04-25 08:42 702K
20260425T06Z_MSC_RDPS_RelativeHumidity_IsbL-0400_RLatLon0.09_PT000H.grib2 2026-04-25 08:42 715K
20260425T06Z_MSC_RDPS_RelativeHumidity_IsbL-0450_RLatLon0.09_PT000H.grib2 2026-04-25 08:42 720K
20260425T06Z_MSC_RDPS_RelativeHumidity_IsbL-0500_RLatLon0.09_PT000H.grib2 2026-04-25 08:42 744K
20260425T06Z_MSC_RDPS_RelativeHumidity_IsbL-0550_RLatLon0.09_PT000H.grib2 2026-04-25 08:42 764K
20260425T06Z_MSC_RDPS_RelativeHumidity_IsbL-0600_RLatLon0.09_PT000H.grib2 2026-04-25 08:42 782K
20260425T06Z_MSC_RDPS_RelativeHumidity_IsbL-0650_RLatLon0.09_PT000H.grib2 2026-04-25 08:42 792K
20260425T06Z_MSC_RDPS_RelativeHumidity_IsbL-0700_RLatLon0.09_PT000H.grib2 2026-04-25 08:42 809K
20260425T06Z_MSC_RDPS_RelativeHumidity_IsbL-0750_RLatLon0.09_PT000H.grib2 2026-04-25 08:42 837K
20260425T06Z_MSC_RDPS_RelativeHumidity_IsbL-0800_RLatLon0.09_PT000H.grib2 2026-04-25 08:42 882K
20260425T06Z_MSC_RDPS_RelativeHumidity_IsbL-0850_RLatLon0.09_PT000H.grib2 2026-04-25 08:42 932K
20260425T06Z_MSC_RDPS_RelativeHumidity_IsbL-0875_RLatLon0.09_PT000H.grib2 2026-04-25 08:42 949K
20260425T06Z_MSC_RDPS_RelativeHumidity_IsbL-0900_RLatLon0.09_PT000H.grib2 2026-04-25 08:42 954K
20260425T06Z_MSC_RDPS_RelativeHumidity_IsbL-0925_RLatLon0.09_PT000H.grib2 2026-04-25 08:42 949K
20260425T06Z_MSC_RDPS_RelativeHumidity_IsbL-0950_RLatLon0.09_PT000H.grib2 2026-04-25 08:42 945K
20260425T06Z_MSC_RDPS_RelativeHumidity_IsbL-0970_RLatLon0.09_PT000H.grib2 2026-04-25 08:42 936K
20260425T06Z_MSC_RDPS_RelativeHumidity_IsbL-0985_RLatLon0.09_PT000H.grib2 2026-04-25 08:42 921K
20260425T06Z_MSC_RDPS_RelativeHumidity_IsbL-1000_RLatLon0.09_PT000H.grib2 2026-04-25 08:42 899K
20260425T06Z_MSC_RDPS_RelativeHumidity_IsbL-1015_RLatLon0.09_PT000H.grib2 2026-04-25 08:42 871K
20260425T06Z_MSC_RDPS_Runoff-Accum_Sfc_RLatLon0.09_PT000H.grib2 2026-04-25 08:42 193
20260425T06Z_MSC_RDPS_SWEATIndex_Sfc_RLatLon0.09_PT000H.grib2 2026-04-25 08:42 2.3M
20260425T06Z_MSC_RDPS_SeaIceFraction_Sfc_RLatLon0.09_PT000H.grib2 2026-04-25 08:42 184K
20260425T06Z_MSC_RDPS_SeaWaterTemp_Sfc_RLatLon0.09_PT000H.grib2 2026-04-25 08:42 278K
20260425T06Z_MSC_RDPS_SensibleHeatNetFlux_Sfc_RLatLon0.09_PT000H.grib2 2026-04-25 08:42 251K
20260425T06Z_MSC_RDPS_ShowalterIndex_IsbL-0500_RLatLon0.09_PT000H.grib2 2026-04-25 08:42 2.5M
20260425T06Z_MSC_RDPS_SkyTransparencyIndex_EAtm_RLatLon0.09_PT000H.grib2 2026-04-25 08:42 513K
20260425T06Z_MSC_RDPS_SnowDensity_Sfc_RLatLon0.09_PT000H.grib2 2026-04-25 08:42 170K
20260425T06Z_MSC_RDPS_SnowDepth_Sfc_RLatLon0.09_PT000H.grib2 2026-04-25 08:42 1.4M
20260425T06Z_MSC_RDPS_SoilTemp_DBS-0to10cm_RLatLon0.09_PT000H.grib2 2026-04-25 08:42 184K
20260425T06Z_MSC_RDPS_SoilTemp_Sfc_RLatLon0.09_PT000H.grib2 2026-04-25 08:42 418K
20260425T06Z_MSC_RDPS_SoilVolumetricIceContent_Sfc_RLatLon0.09_PT000H.grib2 2026-04-25 08:42 169K
20260425T06Z_MSC_RDPS_SoilVolumetricWaterContent_DBS-0to10cm_RLatLon0.09_PT000H.grib2 2026-04-25 08:42 265K
20260425T06Z_MSC_RDPS_SoilVolumetricWaterContent_DBS-0to1cm_RLatLon0.09_PT000H.grib2 2026-04-25 08:42 319K
20260425T06Z_MSC_RDPS_SpecificHumidity_AGL-120m_RLatLon0.09_PT000H.grib2 2026-04-25 08:42 419K
20260425T06Z_MSC_RDPS_SpecificHumidity_AGL-2m_RLatLon0.09_PT000H.grib2 2026-04-25 08:42 516K
20260425T06Z_MSC_RDPS_SpecificHumidity_AGL-40m_RLatLon0.09_PT000H.grib2 2026-04-25 08:42 432K
20260425T06Z_MSC_RDPS_SpecificHumidity_AGL-80m_RLatLon0.09_PT000H.grib2 2026-04-25 08:42 424K
20260425T06Z_MSC_RDPS_SpecificHumidity_IsbL-0001_RLatLon0.09_PT000H.grib2 2026-04-25 08:42 323K
20260425T06Z_MSC_RDPS_SpecificHumidity_IsbL-0005_RLatLon0.09_PT000H.grib2 2026-04-25 08:42 343K
20260425T06Z_MSC_RDPS_SpecificHumidity_IsbL-0010_RLatLon0.09_PT000H.grib2 2026-04-25 08:42 383K
20260425T06Z_MSC_RDPS_SpecificHumidity_IsbL-0020_RLatLon0.09_PT000H.grib2 2026-04-25 08:42 375K
20260425T06Z_MSC_RDPS_SpecificHumidity_IsbL-0030_RLatLon0.09_PT000H.grib2 2026-04-25 08:42 469K
20260425T06Z_MSC_RDPS_SpecificHumidity_IsbL-0050_RLatLon0.09_PT000H.grib2 2026-04-25 08:42 460K
20260425T06Z_MSC_RDPS_SpecificHumidity_IsbL-0100_RLatLon0.09_PT000H.grib2 2026-04-25 08:42 386K
20260425T06Z_MSC_RDPS_SpecificHumidity_IsbL-0150_RLatLon0.09_PT000H.grib2 2026-04-25 08:42 400K
20260425T06Z_MSC_RDPS_SpecificHumidity_IsbL-0175_RLatLon0.09_PT000H.grib2 2026-04-25 08:42 491K
20260425T06Z_MSC_RDPS_SpecificHumidity_IsbL-0200_RLatLon0.09_PT000H.grib2 2026-04-25 08:42 504K
20260425T06Z_MSC_RDPS_SpecificHumidity_IsbL-0225_RLatLon0.09_PT000H.grib2 2026-04-25 08:42 504K
20260425T06Z_MSC_RDPS_SpecificHumidity_IsbL-0250_RLatLon0.09_PT000H.grib2 2026-04-25 08:42 502K
20260425T06Z_MSC_RDPS_SpecificHumidity_IsbL-0275_RLatLon0.09_PT000H.grib2 2026-04-25 08:42 422K
20260425T06Z_MSC_RDPS_SpecificHumidity_IsbL-0300_RLatLon0.09_PT000H.grib2 2026-04-25 08:42 486K
20260425T06Z_MSC_RDPS_SpecificHumidity_IsbL-0350_RLatLon0.09_PT000H.grib2 2026-04-25 08:42 484K
20260425T06Z_MSC_RDPS_SpecificHumidity_IsbL-0400_RLatLon0.09_PT000H.grib2 2026-04-25 08:42 467K
20260425T06Z_MSC_RDPS_SpecificHumidity_IsbL-0450_RLatLon0.09_PT000H.grib2 2026-04-25 08:42 520K
20260425T06Z_MSC_RDPS_SpecificHumidity_IsbL-0500_RLatLon0.09_PT000H.grib2 2026-04-25 08:42 460K
20260425T06Z_MSC_RDPS_SpecificHumidity_IsbL-0550_RLatLon0.09_PT000H.grib2 2026-04-25 08:42 513K
20260425T06Z_MSC_RDPS_SpecificHumidity_IsbL-0600_RLatLon0.09_PT000H.grib2 2026-04-25 08:42 578K
20260425T06Z_MSC_RDPS_SpecificHumidity_IsbL-0650_RLatLon0.09_PT000H.grib2 2026-04-25 08:42 494K
20260425T06Z_MSC_RDPS_SpecificHumidity_IsbL-0700_RLatLon0.09_PT000H.grib2 2026-04-25 08:42 528K
20260425T06Z_MSC_RDPS_SpecificHumidity_IsbL-0750_RLatLon0.09_PT000H.grib2 2026-04-25 08:42 569K
20260425T06Z_MSC_RDPS_SpecificHumidity_IsbL-0800_RLatLon0.09_PT000H.grib2 2026-04-25 08:42 633K
20260425T06Z_MSC_RDPS_SpecificHumidity_IsbL-0850_RLatLon0.09_PT000H.grib2 2026-04-25 08:42 685K
20260425T06Z_MSC_RDPS_SpecificHumidity_IsbL-0875_RLatLon0.09_PT000H.grib2 2026-04-25 08:42 706K
20260425T06Z_MSC_RDPS_SpecificHumidity_IsbL-0900_RLatLon0.09_PT000H.grib2 2026-04-25 08:42 716K
20260425T06Z_MSC_RDPS_SpecificHumidity_IsbL-0925_RLatLon0.09_PT000H.grib2 2026-04-25 08:42 713K
20260425T06Z_MSC_RDPS_SpecificHumidity_IsbL-0950_RLatLon0.09_PT000H.grib2 2026-04-25 08:42 579K
20260425T06Z_MSC_RDPS_SpecificHumidity_IsbL-0970_RLatLon0.09_PT000H.grib2 2026-04-25 08:42 570K
20260425T06Z_MSC_RDPS_SpecificHumidity_IsbL-0985_RLatLon0.09_PT000H.grib2 2026-04-25 08:42 559K
20260425T06Z_MSC_RDPS_SpecificHumidity_IsbL-1000_RLatLon0.09_PT000H.grib2 2026-04-25 08:42 545K
20260425T06Z_MSC_RDPS_SpecificHumidity_IsbL-1015_RLatLon0.09_PT000H.grib2 2026-04-25 08:42 530K
20260425T06Z_MSC_RDPS_SpecificHumidity_Sfc_RLatLon0.09_PT000H.grib2 2026-04-25 08:42 527K
20260425T06Z_MSC_RDPS_StormRelativeHelicity_EtaL-10000_RLatLon0.09_PT000H.grib2 2026-04-25 08:42 1.1M
20260425T06Z_MSC_RDPS_StormSeverityIndex_EtaL-10000_RLatLon0.09_PT000H.grib2 2026-04-25 08:42 1.2M
20260425T06Z_MSC_RDPS_Thickness_IsbL-0850to0700_RLatLon0.09_PT000H.grib2 2026-04-25 08:42 168K
20260425T06Z_MSC_RDPS_Thickness_IsbL-1000to0500_RLatLon0.09_PT000H.grib2 2026-04-25 08:42 194K
20260425T06Z_MSC_RDPS_Thickness_IsbL-1000to0850_RLatLon0.09_PT000H.grib2 2026-04-25 08:42 174K
20260425T06Z_MSC_RDPS_TotalCloudCover_Sfc_RLatLon0.09_PT000H.grib2 2026-04-25 08:42 572K
20260425T06Z_MSC_RDPS_TotalTotalsIndex_Sfc_RLatLon0.09_PT000H.grib2 2026-04-25 08:42 2.2M
20260425T06Z_MSC_RDPS_UVIndex-ClearSky-Max24h_Sfc_RLatLon0.09_PT000H.grib2 2026-04-25 08:42 83K
20260425T06Z_MSC_RDPS_UVIndex-ClearSky_Sfc_RLatLon0.09_PT000H.grib2 2026-04-25 08:42 83K
20260425T06Z_MSC_RDPS_UVIndex-Max24h_Sfc_RLatLon0.09_PT000H.grib2 2026-04-25 08:42 154K
20260425T06Z_MSC_RDPS_UVIndex_Sfc_RLatLon0.09_PT000H.grib2 2026-04-25 08:42 154K
20260425T06Z_MSC_RDPS_UpwardLongwaveRadiationFlux_NTAtm_RLatLon0.09_PT000H.grib2 2026-04-25 08:42 481K
20260425T06Z_MSC_RDPS_UpwardShortwaveRadiationFlux_NTAtm_RLatLon0.09_PT000H.grib2 2026-04-25 08:42 158K
20260425T06Z_MSC_RDPS_VerticalVelocity_IsbL-0250_RLatLon0.09_PT000H.grib2 2026-04-25 08:42 442K
20260425T06Z_MSC_RDPS_VerticalVelocity_IsbL-0500_RLatLon0.09_PT000H.grib2 2026-04-25 08:42 575K
20260425T06Z_MSC_RDPS_VerticalVelocity_IsbL-0700_RLatLon0.09_PT000H.grib2 2026-04-25 08:42 637K
20260425T06Z_MSC_RDPS_VerticalVelocity_IsbL-0850_RLatLon0.09_PT000H.grib2 2026-04-25 08:42 709K
20260425T06Z_MSC_RDPS_VerticalWindShear_EtaL-6500_RLatLon0.09_PT000H.grib2 2026-04-25 08:42 1.2M
20260425T06Z_MSC_RDPS_WindChill_Sfc_RLatLon0.09_PT000H.grib2 2026-04-25 08:42 968K
20260425T06Z_MSC_RDPS_WindDir_AGL-10m_RLatLon0.09_PT000H.grib2 2026-04-25 08:42 851K
20260425T06Z_MSC_RDPS_WindDir_AGL-120m_RLatLon0.09_PT000H.grib2 2026-04-25 08:42 544K
20260425T06Z_MSC_RDPS_WindDir_AGL-40m_RLatLon0.09_PT000H.grib2 2026-04-25 08:42 576K
20260425T06Z_MSC_RDPS_WindDir_AGL-80m_RLatLon0.09_PT000H.grib2 2026-04-25 08:42 556K
20260425T06Z_MSC_RDPS_WindDir_IsbL-0001_RLatLon0.09_PT000H.grib2 2026-04-25 08:42 270K
20260425T06Z_MSC_RDPS_WindDir_IsbL-0005_RLatLon0.09_PT000H.grib2 2026-04-25 08:42 348K
20260425T06Z_MSC_RDPS_WindDir_IsbL-0010_RLatLon0.09_PT000H.grib2 2026-04-25 08:42 352K
20260425T06Z_MSC_RDPS_WindDir_IsbL-0020_RLatLon0.09_PT000H.grib2 2026-04-25 08:42 370K
20260425T06Z_MSC_RDPS_WindDir_IsbL-0030_RLatLon0.09_PT000H.grib2 2026-04-25 08:42 375K
20260425T06Z_MSC_RDPS_WindDir_IsbL-0050_RLatLon0.09_PT000H.grib2 2026-04-25 08:42 403K
20260425T06Z_MSC_RDPS_WindDir_IsbL-0100_RLatLon0.09_PT000H.grib2 2026-04-25 08:42 388K
20260425T06Z_MSC_RDPS_WindDir_IsbL-0150_RLatLon0.09_PT000H.grib2 2026-04-25 08:42 383K
20260425T06Z_MSC_RDPS_WindDir_IsbL-0175_RLatLon0.09_PT000H.grib2 2026-04-25 08:42 396K
20260425T06Z_MSC_RDPS_WindDir_IsbL-0200_RLatLon0.09_PT000H.grib2 2026-04-25 08:42 395K
20260425T06Z_MSC_RDPS_WindDir_IsbL-0225_RLatLon0.09_PT000H.grib2 2026-04-25 08:42 394K
20260425T06Z_MSC_RDPS_WindDir_IsbL-0250_RLatLon0.09_PT000H.grib2 2026-04-25 08:42 394K
20260425T06Z_MSC_RDPS_WindDir_IsbL-0275_RLatLon0.09_PT000H.grib2 2026-04-25 08:42 413K
20260425T06Z_MSC_RDPS_WindDir_IsbL-0300_RLatLon0.09_PT000H.grib2 2026-04-25 08:42 418K
20260425T06Z_MSC_RDPS_WindDir_IsbL-0350_RLatLon0.09_PT000H.grib2 2026-04-25 08:42 441K
20260425T06Z_MSC_RDPS_WindDir_IsbL-0400_RLatLon0.09_PT000H.grib2 2026-04-25 08:42 452K
20260425T06Z_MSC_RDPS_WindDir_IsbL-0450_RLatLon0.09_PT000H.grib2 2026-04-25 08:42 464K
20260425T06Z_MSC_RDPS_WindDir_IsbL-0500_RLatLon0.09_PT000H.grib2 2026-04-25 08:42 480K
20260425T06Z_MSC_RDPS_WindDir_IsbL-0550_RLatLon0.09_PT000H.grib2 2026-04-25 08:42 501K
20260425T06Z_MSC_RDPS_WindDir_IsbL-0600_RLatLon0.09_PT000H.grib2 2026-04-25 08:42 523K
20260425T06Z_MSC_RDPS_WindDir_IsbL-0650_RLatLon0.09_PT000H.grib2 2026-04-25 08:42 560K
20260425T06Z_MSC_RDPS_WindDir_IsbL-0700_RLatLon0.09_PT000H.grib2 2026-04-25 08:42 607K
20260425T06Z_MSC_RDPS_WindDir_IsbL-0750_RLatLon0.09_PT000H.grib2 2026-04-25 08:42 644K
20260425T06Z_MSC_RDPS_WindDir_IsbL-0800_RLatLon0.09_PT000H.grib2 2026-04-25 08:42 699K
20260425T06Z_MSC_RDPS_WindDir_IsbL-0850_RLatLon0.09_PT000H.grib2 2026-04-25 08:42 764K
20260425T06Z_MSC_RDPS_WindDir_IsbL-0875_RLatLon0.09_PT000H.grib2 2026-04-25 08:42 786K
20260425T06Z_MSC_RDPS_WindDir_IsbL-0900_RLatLon0.09_PT000H.grib2 2026-04-25 08:42 794K
20260425T06Z_MSC_RDPS_WindDir_IsbL-0925_RLatLon0.09_PT000H.grib2 2026-04-25 08:42 797K
20260425T06Z_MSC_RDPS_WindDir_IsbL-0950_RLatLon0.09_PT000H.grib2 2026-04-25 08:42 796K
20260425T06Z_MSC_RDPS_WindDir_IsbL-0970_RLatLon0.09_PT000H.grib2 2026-04-25 08:42 808K
20260425T06Z_MSC_RDPS_WindDir_IsbL-0985_RLatLon0.09_PT000H.grib2 2026-04-25 08:42 818K
20260425T06Z_MSC_RDPS_WindDir_IsbL-1000_RLatLon0.09_PT000H.grib2 2026-04-25 08:42 831K
20260425T06Z_MSC_RDPS_WindDir_IsbL-1015_RLatLon0.09_PT000H.grib2 2026-04-25 08:42 844K
20260425T06Z_MSC_RDPS_WindGust-Max_AGL-10m_RLatLon0.09_PT000H.grib2 2026-04-25 08:42 763K
20260425T06Z_MSC_RDPS_WindGust-Min_AGL-10m_RLatLon0.09_PT000H.grib2 2026-04-25 08:42 869K
20260425T06Z_MSC_RDPS_WindGust_AGL-10m_RLatLon0.09_PT000H.grib2 2026-04-25 08:42 883K
20260425T06Z_MSC_RDPS_WindSpeed_AGL-10m_RLatLon0.09_PT000H.grib2 2026-04-25 08:42 703K
20260425T06Z_MSC_RDPS_WindSpeed_AGL-120m_RLatLon0.09_PT000H.grib2 2026-04-25 08:42 487K
20260425T06Z_MSC_RDPS_WindSpeed_AGL-40m_RLatLon0.09_PT000H.grib2 2026-04-25 08:42 507K
20260425T06Z_MSC_RDPS_WindSpeed_AGL-80m_RLatLon0.09_PT000H.grib2 2026-04-25 08:42 498K
20260425T06Z_MSC_RDPS_WindSpeed_IsbL-0001_RLatLon0.09_PT000H.grib2 2026-04-25 08:42 240K
20260425T06Z_MSC_RDPS_WindSpeed_IsbL-0005_RLatLon0.09_PT000H.grib2 2026-04-25 08:42 277K
20260425T06Z_MSC_RDPS_WindSpeed_IsbL-0010_RLatLon0.09_PT000H.grib2 2026-04-25 08:42 368K
20260425T06Z_MSC_RDPS_WindSpeed_IsbL-0020_RLatLon0.09_PT000H.grib2 2026-04-25 08:42 295K
20260425T06Z_MSC_RDPS_WindSpeed_IsbL-0030_RLatLon0.09_PT000H.grib2 2026-04-25 08:42 297K
20260425T06Z_MSC_RDPS_WindSpeed_IsbL-0050_RLatLon0.09_PT000H.grib2 2026-04-25 08:42 322K
20260425T06Z_MSC_RDPS_WindSpeed_IsbL-0100_RLatLon0.09_PT000H.grib2 2026-04-25 08:42 384K
20260425T06Z_MSC_RDPS_WindSpeed_IsbL-0150_RLatLon0.09_PT000H.grib2 2026-04-25 08:42 332K
20260425T06Z_MSC_RDPS_WindSpeed_IsbL-0175_RLatLon0.09_PT000H.grib2 2026-04-25 08:42 381K
20260425T06Z_MSC_RDPS_WindSpeed_IsbL-0200_RLatLon0.09_PT000H.grib2 2026-04-25 08:42 394K
20260425T06Z_MSC_RDPS_WindSpeed_IsbL-0225_RLatLon0.09_PT000H.grib2 2026-04-25 08:42 401K
20260425T06Z_MSC_RDPS_WindSpeed_IsbL-0250_RLatLon0.09_PT000H.grib2 2026-04-25 08:42 404K
20260425T06Z_MSC_RDPS_WindSpeed_IsbL-0275_RLatLon0.09_PT000H.grib2 2026-04-25 08:42 418K
20260425T06Z_MSC_RDPS_WindSpeed_IsbL-0300_RLatLon0.09_PT000H.grib2 2026-04-25 08:42 418K
20260425T06Z_MSC_RDPS_WindSpeed_IsbL-0350_RLatLon0.09_PT000H.grib2 2026-04-25 08:42 426K
20260425T06Z_MSC_RDPS_WindSpeed_IsbL-0400_RLatLon0.09_PT000H.grib2 2026-04-25 08:42 403K
20260425T06Z_MSC_RDPS_WindSpeed_IsbL-0450_RLatLon0.09_PT000H.grib2 2026-04-25 08:42 401K
20260425T06Z_MSC_RDPS_WindSpeed_IsbL-0500_RLatLon0.09_PT000H.grib2 2026-04-25 08:42 400K
20260425T06Z_MSC_RDPS_WindSpeed_IsbL-0550_RLatLon0.09_PT000H.grib2 2026-04-25 08:42 509K
20260425T06Z_MSC_RDPS_WindSpeed_IsbL-0600_RLatLon0.09_PT000H.grib2 2026-04-25 08:42 518K
20260425T06Z_MSC_RDPS_WindSpeed_IsbL-0650_RLatLon0.09_PT000H.grib2 2026-04-25 08:42 577K
20260425T06Z_MSC_RDPS_WindSpeed_IsbL-0700_RLatLon0.09_PT000H.grib2 2026-04-25 08:42 596K
20260425T06Z_MSC_RDPS_WindSpeed_IsbL-0750_RLatLon0.09_PT000H.grib2 2026-04-25 08:42 622K
20260425T06Z_MSC_RDPS_WindSpeed_IsbL-0800_RLatLon0.09_PT000H.grib2 2026-04-25 08:42 660K
20260425T06Z_MSC_RDPS_WindSpeed_IsbL-0850_RLatLon0.09_PT000H.grib2 2026-04-25 08:42 658K
20260425T06Z_MSC_RDPS_WindSpeed_IsbL-0875_RLatLon0.09_PT000H.grib2 2026-04-25 08:42 672K
20260425T06Z_MSC_RDPS_WindSpeed_IsbL-0900_RLatLon0.09_PT000H.grib2 2026-04-25 08:42 726K
20260425T06Z_MSC_RDPS_WindSpeed_IsbL-0925_RLatLon0.09_PT000H.grib2 2026-04-25 08:42 734K
20260425T06Z_MSC_RDPS_WindSpeed_IsbL-0950_RLatLon0.09_PT000H.grib2 2026-04-25 08:42 735K
20260425T06Z_MSC_RDPS_WindSpeed_IsbL-0970_RLatLon0.09_PT000H.grib2 2026-04-25 08:42 730K
20260425T06Z_MSC_RDPS_WindSpeed_IsbL-0985_RLatLon0.09_PT000H.grib2 2026-04-25 08:42 724K
20260425T06Z_MSC_RDPS_WindSpeed_IsbL-1000_RLatLon0.09_PT000H.grib2 2026-04-25 08:42 716K
20260425T06Z_MSC_RDPS_WindSpeed_IsbL-1015_RLatLon0.09_PT000H.grib2 2026-04-25 08:42 705K
20260425T06Z_MSC_RDPS_WindU_AGL-10m_RLatLon0.09_PT000H.grib2 2026-04-25 08:42 360K
20260425T06Z_MSC_RDPS_WindU_AGL-120m_RLatLon0.09_PT000H.grib2 2026-04-25 08:42 486K
20260425T06Z_MSC_RDPS_WindU_AGL-40m_RLatLon0.09_PT000H.grib2 2026-04-25 08:42 499K
20260425T06Z_MSC_RDPS_WindU_AGL-80m_RLatLon0.09_PT000H.grib2 2026-04-25 08:42 493K
20260425T06Z_MSC_RDPS_WindU_IsbL-0001_RLatLon0.09_PT000H.grib2 2026-04-25 08:42 281K
20260425T06Z_MSC_RDPS_WindU_IsbL-0005_RLatLon0.09_PT000H.grib2 2026-04-25 08:42 268K
20260425T06Z_MSC_RDPS_WindU_IsbL-0010_RLatLon0.09_PT000H.grib2 2026-04-25 08:42 275K
20260425T06Z_MSC_RDPS_WindU_IsbL-0020_RLatLon0.09_PT000H.grib2 2026-04-25 08:42 287K
20260425T06Z_MSC_RDPS_WindU_IsbL-0030_RLatLon0.09_PT000H.grib2 2026-04-25 08:42 332K
20260425T06Z_MSC_RDPS_WindU_IsbL-0050_RLatLon0.09_PT000H.grib2 2026-04-25 08:42 314K
20260425T06Z_MSC_RDPS_WindU_IsbL-0100_RLatLon0.09_PT000H.grib2 2026-04-25 08:42 378K
20260425T06Z_MSC_RDPS_WindU_IsbL-0150_RLatLon0.09_PT000H.grib2 2026-04-25 08:42 326K
20260425T06Z_MSC_RDPS_WindU_IsbL-0175_RLatLon0.09_PT000H.grib2 2026-04-25 08:42 377K
20260425T06Z_MSC_RDPS_WindU_IsbL-0200_RLatLon0.09_PT000H.grib2 2026-04-25 08:42 389K
20260425T06Z_MSC_RDPS_WindU_IsbL-0225_RLatLon0.09_PT000H.grib2 2026-04-25 08:42 393K
20260425T06Z_MSC_RDPS_WindU_IsbL-0250_RLatLon0.09_PT000H.grib2 2026-04-25 08:42 305K
20260425T06Z_MSC_RDPS_WindU_IsbL-0275_RLatLon0.09_PT000H.grib2 2026-04-25 08:42 316K
20260425T06Z_MSC_RDPS_WindU_IsbL-0300_RLatLon0.09_PT000H.grib2 2026-04-25 08:42 315K
20260425T06Z_MSC_RDPS_WindU_IsbL-0350_RLatLon0.09_PT000H.grib2 2026-04-25 08:42 321K
20260425T06Z_MSC_RDPS_WindU_IsbL-0400_RLatLon0.09_PT000H.grib2 2026-04-25 08:42 413K
20260425T06Z_MSC_RDPS_WindU_IsbL-0450_RLatLon0.09_PT000H.grib2 2026-04-25 08:42 412K
20260425T06Z_MSC_RDPS_WindU_IsbL-0500_RLatLon0.09_PT000H.grib2 2026-04-25 08:42 412K
20260425T06Z_MSC_RDPS_WindU_IsbL-0550_RLatLon0.09_PT000H.grib2 2026-04-25 08:42 415K
20260425T06Z_MSC_RDPS_WindU_IsbL-0600_RLatLon0.09_PT000H.grib2 2026-04-25 08:42 423K
20260425T06Z_MSC_RDPS_WindU_IsbL-0650_RLatLon0.09_PT000H.grib2 2026-04-25 08:42 416K
20260425T06Z_MSC_RDPS_WindU_IsbL-0700_RLatLon0.09_PT000H.grib2 2026-04-25 08:42 432K
20260425T06Z_MSC_RDPS_WindU_IsbL-0750_RLatLon0.09_PT000H.grib2 2026-04-25 08:42 453K
20260425T06Z_MSC_RDPS_WindU_IsbL-0800_RLatLon0.09_PT000H.grib2 2026-04-25 08:42 484K
20260425T06Z_MSC_RDPS_WindU_IsbL-0850_RLatLon0.09_PT000H.grib2 2026-04-25 08:42 518K
20260425T06Z_MSC_RDPS_WindU_IsbL-0875_RLatLon0.09_PT000H.grib2 2026-04-25 08:42 529K
20260425T06Z_MSC_RDPS_WindU_IsbL-0900_RLatLon0.09_PT000H.grib2 2026-04-25 08:42 536K
20260425T06Z_MSC_RDPS_WindU_IsbL-0925_RLatLon0.09_PT000H.grib2 2026-04-25 08:42 541K
20260425T06Z_MSC_RDPS_WindU_IsbL-0950_RLatLon0.09_PT000H.grib2 2026-04-25 08:42 540K
20260425T06Z_MSC_RDPS_WindU_IsbL-0970_RLatLon0.09_PT000H.grib2 2026-04-25 08:42 541K
20260425T06Z_MSC_RDPS_WindU_IsbL-0985_RLatLon0.09_PT000H.grib2 2026-04-25 08:42 663K
20260425T06Z_MSC_RDPS_WindU_IsbL-1000_RLatLon0.09_PT000H.grib2 2026-04-25 08:42 655K
20260425T06Z_MSC_RDPS_WindU_IsbL-1015_RLatLon0.09_PT000H.grib2 2026-04-25 08:42 689K
20260425T06Z_MSC_RDPS_WindV_AGL-10m_RLatLon0.09_PT000H.grib2 2026-04-25 08:42 358K
20260425T06Z_MSC_RDPS_WindV_AGL-120m_RLatLon0.09_PT000H.grib2 2026-04-25 08:42 375K
20260425T06Z_MSC_RDPS_WindV_AGL-40m_RLatLon0.09_PT000H.grib2 2026-04-25 08:42 493K
20260425T06Z_MSC_RDPS_WindV_AGL-80m_RLatLon0.09_PT000H.grib2 2026-04-25 08:42 487K
20260425T06Z_MSC_RDPS_WindV_IsbL-0001_RLatLon0.09_PT000H.grib2 2026-04-25 08:42 282K
20260425T06Z_MSC_RDPS_WindV_IsbL-0005_RLatLon0.09_PT000H.grib2 2026-04-25 08:42 313K
20260425T06Z_MSC_RDPS_WindV_IsbL-0010_RLatLon0.09_PT000H.grib2 2026-04-25 08:42 275K
20260425T06Z_MSC_RDPS_WindV_IsbL-0020_RLatLon0.09_PT000H.grib2 2026-04-25 08:42 288K
20260425T06Z_MSC_RDPS_WindV_IsbL-0030_RLatLon0.09_PT000H.grib2 2026-04-25 08:42 290K
20260425T06Z_MSC_RDPS_WindV_IsbL-0050_RLatLon0.09_PT000H.grib2 2026-04-25 08:42 314K
20260425T06Z_MSC_RDPS_WindV_IsbL-0100_RLatLon0.09_PT000H.grib2 2026-04-25 08:42 292K
20260425T06Z_MSC_RDPS_WindV_IsbL-0150_RLatLon0.09_PT000H.grib2 2026-04-25 08:42 352K
20260425T06Z_MSC_RDPS_WindV_IsbL-0175_RLatLon0.09_PT000H.grib2 2026-04-25 08:42 289K
20260425T06Z_MSC_RDPS_WindV_IsbL-0200_RLatLon0.09_PT000H.grib2 2026-04-25 08:42 298K
20260425T06Z_MSC_RDPS_WindV_IsbL-0225_RLatLon0.09_PT000H.grib2 2026-04-25 08:42 302K
20260425T06Z_MSC_RDPS_WindV_IsbL-0250_RLatLon0.09_PT000H.grib2 2026-04-25 08:42 302K
20260425T06Z_MSC_RDPS_WindV_IsbL-0275_RLatLon0.09_PT000H.grib2 2026-04-25 08:42 314K
20260425T06Z_MSC_RDPS_WindV_IsbL-0300_RLatLon0.09_PT000H.grib2 2026-04-25 08:42 313K
20260425T06Z_MSC_RDPS_WindV_IsbL-0350_RLatLon0.09_PT000H.grib2 2026-04-25 08:42 319K
20260425T06Z_MSC_RDPS_WindV_IsbL-0400_RLatLon0.09_PT000H.grib2 2026-04-25 08:42 318K
20260425T06Z_MSC_RDPS_WindV_IsbL-0450_RLatLon0.09_PT000H.grib2 2026-04-25 08:42 410K
20260425T06Z_MSC_RDPS_WindV_IsbL-0500_RLatLon0.09_PT000H.grib2 2026-04-25 08:42 410K
20260425T06Z_MSC_RDPS_WindV_IsbL-0550_RLatLon0.09_PT000H.grib2 2026-04-25 08:42 412K
20260425T06Z_MSC_RDPS_WindV_IsbL-0600_RLatLon0.09_PT000H.grib2 2026-04-25 08:42 419K
20260425T06Z_MSC_RDPS_WindV_IsbL-0650_RLatLon0.09_PT000H.grib2 2026-04-25 08:42 433K
20260425T06Z_MSC_RDPS_WindV_IsbL-0700_RLatLon0.09_PT000H.grib2 2026-04-25 08:42 428K
20260425T06Z_MSC_RDPS_WindV_IsbL-0750_RLatLon0.09_PT000H.grib2 2026-04-25 08:42 448K
20260425T06Z_MSC_RDPS_WindV_IsbL-0800_RLatLon0.09_PT000H.grib2 2026-04-25 08:42 479K
20260425T06Z_MSC_RDPS_WindV_IsbL-0850_RLatLon0.09_PT000H.grib2 2026-04-25 08:42 513K
20260425T06Z_MSC_RDPS_WindV_IsbL-0875_RLatLon0.09_PT000H.grib2 2026-04-25 08:42 525K
20260425T06Z_MSC_RDPS_WindV_IsbL-0900_RLatLon0.09_PT000H.grib2 2026-04-25 08:42 531K
20260425T06Z_MSC_RDPS_WindV_IsbL-0925_RLatLon0.09_PT000H.grib2 2026-04-25 08:42 538K
20260425T06Z_MSC_RDPS_WindV_IsbL-0950_RLatLon0.09_PT000H.grib2 2026-04-25 08:42 664K
20260425T06Z_MSC_RDPS_WindV_IsbL-0970_RLatLon0.09_PT000H.grib2 2026-04-25 08:42 665K
20260425T06Z_MSC_RDPS_WindV_IsbL-0985_RLatLon0.09_PT000H.grib2 2026-04-25 08:42 659K
20260425T06Z_MSC_RDPS_WindV_IsbL-1000_RLatLon0.09_PT000H.grib2 2026-04-25 08:42 651K
20260425T06Z_MSC_RDPS_WindV_IsbL-1015_RLatLon0.09_PT000H.grib2 2026-04-25 08:42 686K